Time;durP1;ratioP1;P1;durP2;ratioP2;P2;SDS_P1;SDS_P2;PMS_P1;PMS_P2;Temp;Humidity;BMP_temperature;BMP_pressure;BME280_temperature;BME280_humidity;BME280_pressure;Samples;Min_cycle;Max_cycle;Signal;HPM_P1;HPM_P2
2023/07/02 00:02:17;;;;;;;13.13;3.28;;;;;;;23.48;65.76;99982.03;5012619;28;20493;-84
2023/07/02 00:04:43;;;;;;;7.47;2.72;;;;;;;23.49;66.07;99991.94;4961522;28;20042;-84
2023/07/02 00:07:08;;;;;;;6.15;2.40;;;;;;;23.35;66.12;99970.28;5012149;28;20038;-83
2023/07/02 00:09:34;;;;;;;10.27;3.00;;;;;;;23.53;66.16;99992.31;5012422;28;20117;-86
2023/07/02 00:11:59;;;;;;;5.80;2.30;;;;;;;23.37;65.57;99954.41;5012094;28;20038;-84
2023/07/02 00:14:25;;;;;;;8.88;3.10;;;;;;;23.44;65.52;99961.59;5012027;28;20093;-85
2023/07/02 00:16:50;;;;;;;7.35;3.00;;;;;;;23.45;65.59;99963.28;5011969;28;20033;-84
2023/07/02 00:19:16;;;;;;;5.60;2.65;;;;;;;23.56;65.66;99979.00;5011151;28;20046;-82
2023/07/02 00:21:42;;;;;;;7.65;3.13;;;;;;;23.47;64.87;99955.66;5011483;28;20117;-82
2023/07/02 00:24:11;;;;;;;12.30;3.28;;;;;;;23.29;65.17;99925.38;5011952;28;20121;-89
2023/07/02 00:26:37;;;;;;;12.73;3.80;;;;;;;23.50;65.20;99968.91;4994231;28;20493;-83
2023/07/02 00:29:05;;;;;;;4.50;2.90;;;;;;;23.35;65.62;99946.44;5012667;28;20045;-82
2023/07/02 00:31:31;;;;;;;5.45;2.92;;;;;;;23.43;66.07;99968.13;5013046;28;20034;-82
2023/07/02 00:33:57;;;;;;;10.88;3.33;;;;;;;23.27;66.32;99938.47;5012764;28;20482;-84
2023/07/02 00:36:22;;;;;;;10.05;3.20;;;;;;;23.33;66.43;99951.31;5011486;28;20045;-82
2023/07/02 00:38:49;;;;;;;8.95;2.65;;;;;;;23.31;66.64;99939.69;5016677;28;20032;-83
2023/07/02 00:41:15;;;;;;;11.10;3.10;;;;;;;23.20;66.83;99918.47;5014751;28;20038;-82
2023/07/02 00:43:43;;;;;;;3.28;2.60;;;;;;;23.41;67.14;99956.53;5013902;28;20033;-86
2023/07/02 00:46:19;;;;;;;17.48;3.50;;;;;;;23.39;67.31;99947.69;5013333;28;20042;-82
2023/07/02 00:48:49;;;;;;;9.05;3.28;;;;;;;23.50;67.20;99963.44;5012311;28;20391;-83
2023/07/02 00:51:17;;;;;;;12.60;3.03;;;;;;;23.40;67.50;99954.84;5012712;28;20072;-83
2023/07/02 00:53:47;;;;;;;5.70;3.53;;;;;;;23.19;68.13;99911.31;5012356;28;20033;-84
2023/07/02 00:56:13;;;;;;;6.50;2.65;;;;;;;23.33;68.13;99938.41;5013461;28;20469;-83
2023/07/02 00:58:46;;;;;;;9.20;2.65;;;;;;;23.40;68.39;99941.13;5012865;28;20046;-84
2023/07/02 01:01:12;;;;;;;6.85;3.05;;;;;;;23.42;68.42;99941.75;4971028;28;20042;-85
2023/07/02 01:03:38;;;;;;;11.40;3.13;;;;;;;23.31;68.54;99932.31;4974504;28;20041;-84
2023/07/02 01:06:03;;;;;;;8.18;2.97;;;;;;;23.29;68.73;99922.63;4970332;28;20493;-84
2023/07/02 01:08:29;;;;;;;9.95;2.83;;;;;;;23.21;68.86;99911.91;4970236;28;20035;-82
2023/07/02 01:10:55;;;;;;;8.90;3.00;;;;;;;23.31;69.40;99942.44;4969007;28;20419;-85
2023/07/02 01:13:23;;;;;;;21.77;3.90;;;;;;;23.21;69.74;99933.88;4968102;28;20038;-83
2023/07/02 01:15:49;;;;;;;17.60;3.28;;;;;;;23.18;70.19;99932.41;4968250;28;20113;-83
2023/07/02 01:18:15;;;;;;;15.85;3.67;;;;;;;23.10;70.73;99915.38;4968381;28;20114;-84
2023/07/02 01:20:42;;;;;;;16.98;3.67;;;;;;;23.23;71.04;99934.50;4968151;28;20125;-87
2023/07/02 01:23:09;;;;;;;42.75;7.72;;;;;;;23.11;71.16;99906.94;4968581;28;20049;-85
2023/07/02 01:25:36;;;;;;;16.85;4.13;;;;;;;23.17;71.79;99927.16;4969554;28;20110;-84
2023/07/02 01:28:03;;;;;;;14.52;3.90;;;;;;;23.17;72.09;99914.28;4969357;28;20173;-84
2023/07/02 01:30:28;;;;;;;12.27;4.43;;;;;;;23.10;72.19;99904.41;4969558;28;20069;-83
2023/07/02 01:32:54;;;;;;;8.80;3.60;;;;;;;23.22;72.30;99913.59;4970856;28;20492;-83
2023/07/02 01:35:19;;;;;;;10.45;4.60;;;;;;;23.14;72.81;99894.69;4969568;28;20070;-83
2023/07/02 01:37:45;;;;;;;5.07;3.05;;;;;;;23.15;73.22;99902.69;4976025;28;20081;-85
2023/07/02 01:40:11;;;;;;;20.17;4.30;;;;;;;23.08;73.50;99890.09;5010562;28;20030;-84
2023/07/02 01:42:37;;;;;;;11.20;3.58;;;;;;;23.14;73.73;99916.63;5010667;28;20108;-83
2023/07/02 01:45:03;;;;;;;17.08;3.85;;;;;;;23.12;74.21;99896.78;5011320;28;20041;-87
2023/07/02 01:47:28;;;;;;;9.13;3.63;;;;;;;23.31;74.73;99923.22;5010270;28;20034;-84
2023/07/02 01:49:54;;;;;;;6.82;4.15;;;;;;;23.21;74.98;99911.91;5010978;28;20034;-84
2023/07/02 01:52:19;;;;;;;30.38;5.10;;;;;;;23.15;75.51;99901.84;5011065;28;20034;-83
2023/07/02 01:54:45;;;;;;;10.60;5.32;;;;;;;23.21;75.58;99900.94;5010611;28;20038;-86
2023/07/02 01:57:10;;;;;;;15.95;4.38;;;;;;;23.27;76.25;99911.84;5010806;28;20061;-84
2023/07/02 01:59:36;;;;;;;15.30;3.65;;;;;;;23.23;76.17;99915.28;5010228;28;20068;-86
2023/07/02 02:02:02;;;;;;;15.60;4.43;;;;;;;23.31;76.22;99918.59;4992930;28;20136;-84
2023/07/02 02:04:27;;;;;;;15.77;3.63;;;;;;;23.20;76.50;99899.28;5010019;28;20046;-83
2023/07/02 02:06:53;;;;;;;31.85;7.00;;;;;;;23.29;76.79;99925.38;5009922;28;20046;-85
2023/07/02 02:09:19;;;;;;;35.40;6.07;;;;;;;23.18;77.36;99912.34;5009050;28;20050;-84
2023/07/02 02:11:48;;;;;;;13.77;4.10;;;;;;;23.24;77.87;99923.28;5009227;28;20081;-85
2023/07/02 02:14:13;;;;;;;12.88;4.10;;;;;;;23.17;78.31;99911.53;5009010;28;20045;-84
2023/07/02 02:16:39;;;;;;;11.98;4.18;;;;;;;23.23;78.49;99916.13;5008873;28;20038;-87
2023/07/02 02:19:05;;;;;;;12.00;4.25;;;;;;;23.29;78.81;99911.66;5009191;28;20037;-84
2023/07/02 02:21:31;;;;;;;26.30;6.20;;;;;;;23.14;79.24;99892.78;5008752;28;20030;-85
2023/07/02 02:23:56;;;;;;;11.95;4.30;;;;;;;23.11;79.54;99889.66;5009921;28;20045;-84
2023/07/02 02:26:22;;;;;;;10.18;5.28;;;;;;;23.22;79.93;99906.22;4992690;28;20582;-83
2023/07/02 02:28:49;;;;;;;10.52;4.53;;;;;;;23.10;80.31;99887.97;5010453;28;20453;-85
2023/07/02 02:31:15;;;;;;;38.45;6.22;;;;;;;23.13;80.88;99909.47;5010214;28;20041;-82
2023/07/02 02:33:41;;;;;;;13.02;4.18;;;;;;;23.18;81.28;99917.84;5009494;28;20077;-84
2023/07/02 02:36:06;;;;;;;14.38;4.70;;;;;;;23.18;81.64;99921.44;5010080;28;20190;-84
2023/07/02 02:38:32;;;;;;;106.13;14.18;;;;;;;23.14;81.73;99911.16;5010021;28;20139;-84
2023/07/02 02:40:57;;;;;;;16.92;5.07;;;;;;;23.01;82.06;99884.66;5009618;28;20038;-83
2023/07/02 02:43:23;;;;;;;11.15;3.95;;;;;;;23.16;82.54;99904.38;5012339;28;20049;-84
2023/07/02 02:45:48;;;;;;;31.05;6.60;;;;;;;23.27;82.33;99922.03;5013998;28;20034;-84
2023/07/02 02:48:14;;;;;;;14.52;4.60;;;;;;;23.25;82.56;99910.41;5014098;28;20483;-83
2023/07/02 02:50:43;;;;;;;13.60;4.38;;;;;;;23.33;82.54;99926.63;5014570;28;20044;-83
2023/07/02 02:53:09;;;;;;;16.42;6.07;;;;;;;23.20;82.67;99897.38;5014172;28;20116;-83
2023/07/02 02:55:36;;;;;;;9.10;4.70;;;;;;;23.25;82.82;99902.19;5014662;28;20037;-83
2023/07/02 02:58:01;;;;;;;13.25;5.70;;;;;;;23.31;82.44;99912.25;4991935;28;20034;-87
2023/07/02 03:00:27;;;;;;;18.52;4.70;;;;;;;23.30;82.62;99907.84;5012484;28;20531;-84
2023/07/02 03:02:52;;;;;;;14.63;4.47;;;;;;;23.39;82.88;99909.28;5012897;28;20046;-84
2023/07/02 03:05:18;;;;;;;7.25;4.38;;;;;;;23.41;82.91;99920.84;5010145;28;20442;-79
2023/07/02 03:07:43;;;;;;;12.48;5.80;;;;;;;23.42;82.89;99913.47;5010816;28;20538;-80
2023/07/02 03:10:09;;;;;;;13.40;5.18;;;;;;;23.35;82.73;99897.03;5016017;28;20050;-85
2023/07/02 03:12:34;;;;;;;10.77;4.38;;;;;;;23.42;82.50;99907.97;5016561;28;20037;-87
2023/07/02 03:15:00;;;;;;;19.95;5.72;;;;;;;23.50;82.53;99915.91;4994322;28;20458;-87
2023/07/02 03:17:26;;;;;;;11.35;4.85;;;;;;;23.51;82.43;99917.59;4997816;28;20045;-86
2023/07/02 03:19:51;;;;;;;15.35;5.60;;;;;;;23.46;82.67;99914.69;5015208;28;20029;-86
2023/07/02 03:22:17;;;;;;;17.23;5.05;;;;;;;23.50;82.52;99921.41;5015722;28;20025;-81
2023/07/02 03:24:42;;;;;;;15.52;5.10;;;;;;;23.59;82.63;99920.91;5023471;28;20061;-84
2023/07/02 03:27:08;;;;;;;30.17;5.68;;;;;;;23.63;82.74;99927.63;5035151;28;20131;-82
2023/07/02 03:29:38;;;;;;;31.00;7.15;;;;;;;23.65;82.50;99930.97;5035468;28;20057;-85
2023/07/02 03:32:04;;;;;;;25.70;6.07;;;;;;;23.76;82.51;99932.13;5024033;28;20045;-78
2023/07/02 03:34:30;;;;;;;18.42;4.97;;;;;;;23.63;82.23;99905.66;5012964;28;20056;-79
2023/07/02 03:36:55;;;;;;;13.27;4.97;;;;;;;23.81;82.51;99935.88;5013740;28;20518;-80
2023/07/02 03:39:21;;;;;;;10.35;4.55;;;;;;;23.81;82.36;99922.16;5013774;28;20037;-81
2023/07/02 03:41:46;;;;;;;14.30;5.03;;;;;;;23.89;82.45;99937.47;5012542;28;20486;-79
2023/07/02 03:44:12;;;;;;;23.27;7.78;;;;;;;23.92;82.50;99942.50;5011430;28;20033;-81
2023/07/02 03:46:37;;;;;;;33.33;11.80;;;;;;;23.99;82.18;99932.31;5011522;28;20034;-81
2023/07/02 03:49:03;;;;;;;11.73;5.10;;;;;;;23.98;82.37;99938.00;5010621;28;20117;-80
2023/07/02 03:51:30;;;;;;;11.38;5.10;;;;;;;23.97;82.74;99933.59;5010242;28;20117;-78
2023/07/02 03:53:55;;;;;;;22.13;6.38;;;;;;;24.11;82.81;99944.25;5010130;28;20026;-79
2023/07/02 03:56:21;;;;;;;10.82;5.25;;;;;;;24.05;83.05;99927.78;5010505;28;20104;-84
2023/07/02 03:58:46;;;;;;;49.33;9.55;;;;;;;24.14;82.29;99938.28;5010400;28;20050;-81
2023/07/02 04:01:12;;;;;;;21.85;5.10;;;;;;;24.13;82.29;99927.50;5009649;28;20061;-81
2023/07/02 04:03:38;;;;;;;28.75;6.43;;;;;;;24.19;82.12;99943.06;5009303;28;20505;-84
2023/07/02 04:06:05;;;;;;;11.25;4.47;;;;;;;24.16;82.11;99921.56;5010410;28;20096;-80
2023/07/02 04:08:31;;;;;;;14.70;4.40;;;;;;;24.24;81.80;99937.75;4975008;28;20355;-79
2023/07/02 04:10:57;;;;;;;12.90;4.35;;;;;;;24.22;81.78;99942.63;5009293;28;20044;-78
2023/07/02 04:13:22;;;;;;;15.52;5.28;;;;;;;24.33;82.08;99945.47;5009749;28;20034;-79
2023/07/02 04:15:47;;;;;;;15.57;4.20;;;;;;;24.36;81.47;99924.91;5010162;28;20073;-79
2023/07/02 04:18:13;;;;;;;12.82;4.18;;;;;;;24.31;80.97;99942.06;5009873;28;20085;-80
2023/07/02 04:20:39;;;;;;;23.27;4.55;;;;;;;24.39;80.40;99954.69;4991985;28;20099;-79
2023/07/02 04:23:05;;;;;;;23.88;6.13;;;;;;;24.37;80.31;99945.84;5009234;28;20065;-79
2023/07/02 04:25:30;;;;;;;18.10;4.45;;;;;;;24.36;80.82;99933.16;5009159;28;20037;-79
2023/07/02 04:27:58;;;;;;;11.25;3.92;;;;;;;24.41;80.65;99926.94;5009120;28;20034;-78
2023/07/02 04:30:24;;;;;;;7.22;4.07;;;;;;;24.56;80.54;99944.72;5009029;28;20046;-78
2023/07/02 04:32:49;;;;;;;12.68;4.63;;;;;;;24.51;79.79;99936.34;5008378;28;20056;-78
2023/07/02 04:35:15;;;;;;;9.85;4.38;;;;;;;24.45;79.63;99929.03;5009403;28;20104;-79
2023/07/02 04:37:40;;;;;;;15.63;5.07;;;;;;;24.62;79.12;99943.78;5008823;28;20118;-79
2023/07/02 04:40:09;;;;;;;7.45;3.70;;;;;;;24.76;78.51;99944.47;5009203;28;20038;-79
2023/07/02 04:42:37;;;;;;;16.63;4.43;;;;;;;24.89;77.72;99944.31;5008840;28;20053;-79
2023/07/02 04:45:04;;;;;;;11.25;4.20;;;;;;;24.75;76.46;99943.63;5009577;28;20080;-79
2023/07/02 04:47:30;;;;;;;22.17;4.53;;;;;;;24.70;76.59;99946.22;5008594;28;20038;-78
2023/07/02 04:49:56;;;;;;;10.32;3.63;;;;;;;24.76;77.41;99961.81;5009206;28;20037;-78
2023/07/02 04:52:21;;;;;;;9.85;3.22;;;;;;;24.73;76.85;99951.28;5008812;28;20038;-85
2023/07/02 04:54:46;;;;;;;8.27;4.07;;;;;;;24.62;77.40;99960.28;5009271;28;20081;-78
2023/07/02 04:57:13;;;;;;;12.02;3.67;;;;;;;24.53;78.24;99971.84;5009119;28;20038;-80
2023/07/02 04:59:39;;;;;;;10.23;4.28;;;;;;;24.46;78.64;99960.09;5009411;28;20472;-82
2023/07/02 05:02:04;;;;;;;15.68;4.38;;;;;;;24.49;78.82;99970.63;5008691;28;20124;-77
2023/07/02 05:04:30;;;;;;;6.05;3.55;;;;;;;24.59;78.43;99963.50;5008725;28;20169;-78
2023/07/02 05:06:55;;;;;;;9.27;4.20;;;;;;;24.63;78.03;99955.63;5008933;28;20037;-78
2023/07/02 05:09:20;;;;;;;11.38;4.43;;;;;;;24.57;78.26;99973.91;5008047;28;20524;-77
2023/07/02 05:11:46;;;;;;;24.10;4.32;;;;;;;24.56;78.98;99952.97;5007756;28;20363;-84
2023/07/02 05:14:11;;;;;;;11.40;4.55;;;;;;;24.58;78.95;99970.09;5008219;28;20038;-79
2023/07/02 05:16:37;;;;;;;14.25;5.32;;;;;;;24.57;78.72;99973.91;5008562;28;20038;-78
2023/07/02 05:19:03;;;;;;;27.42;5.15;;;;;;;24.70;79.29;99964.63;5009149;28;20034;-77
2023/07/02 05:21:28;;;;;;;12.50;3.95;;;;;;;24.92;78.45;99969.41;5009065;28;20030;-77
2023/07/02 05:23:53;;;;;;;40.97;6.95;;;;;;;24.98;77.46;99955.81;5004919;28;20037;-78
2023/07/02 05:26:19;;;;;;;10.75;3.72;;;;;;;24.96;76.92;99963.44;5008837;28;20038;-83
2023/07/02 05:28:44;;;;;;;26.15;4.82;;;;;;;24.93;77.16;99964.75;5008923;28;20040;-78
2023/07/02 05:31:10;;;;;;;10.52;4.28;;;;;;;24.85;77.13;99943.94;4989977;28;20399;-83
2023/07/02 05:33:35;;;;;;;7.18;3.92;;;;;;;25.01;77.00;99969.09;5007618;28;20045;-79
2023/07/02 05:36:01;;;;;;;10.68;4.03;;;;;;;24.98;77.25;99969.56;5008344;28;20038;-80
2023/07/02 05:38:26;;;;;;;12.98;3.90;;;;;;;25.02;77.52;99973.50;5008121;28;20046;-80
2023/07/02 05:40:52;;;;;;;15.43;4.22;;;;;;;25.18;76.88;99972.84;5008100;28;20194;-80
2023/07/02 05:43:18;;;;;;;10.27;4.25;;;;;;;25.35;76.13;99982.13;5007565;28;20046;-79
2023/07/02 05:45:43;;;;;;;12.70;3.78;;;;;;;25.41;75.69;99978.41;5008563;28;20034;-81
2023/07/02 05:48:08;;;;;;;11.80;4.13;;;;;;;25.50;75.91;99973.44;5007310;28;20060;-78
2023/07/02 05:50:34;;;;;;;11.90;4.13;;;;;;;25.60;74.97;99968.16;4990436;28;20114;-80
2023/07/02 05:52:59;;;;;;;10.35;4.03;;;;;;;25.47;74.73;99958.19;5007656;28;20045;-79
2023/07/02 05:55:25;;;;;;;8.00;3.47;;;;;;;25.34;75.31;99974.94;5008402;28;20033;-79
2023/07/02 05:57:50;;;;;;;7.53;4.13;;;;;;;25.42;75.90;99980.06;5008477;28;20456;-79
2023/07/02 06:00:16;;;;;;;9.98;4.00;;;;;;;25.42;75.79;99974.56;5009110;28;20038;-82
2023/07/02 06:02:41;;;;;;;8.32;3.97;;;;;;;25.47;75.62;99974.72;5007827;28;20034;-81
2023/07/02 06:05:07;;;;;;;19.88;4.50;;;;;;;25.34;76.38;99959.25;5006970;28;20498;-78
2023/07/02 06:07:33;;;;;;;19.83;4.18;;;;;;;25.48;75.77;99962.59;5008170;28;20042;-82
2023/07/02 06:09:58;;;;;;;10.15;3.30;;;;;;;25.51;76.24;99972.34;5008199;28;20034;-78
2023/07/02 06:12:24;;;;;;;17.33;4.93;;;;;;;25.65;76.36;99965.53;5007718;28;20153;-79
2023/07/02 06:14:49;;;;;;;19.73;5.28;;;;;;;25.69;76.07;99966.72;4991170;28;20046;-80
2023/07/02 06:17:15;;;;;;;7.13;3.88;;;;;;;25.84;76.04;99975.38;5009469;28;20090;-80
2023/07/02 06:19:41;;;;;;;9.20;5.22;;;;;;;25.83;76.46;99973.69;5012688;28;20034;-81
2023/07/02 06:22:06;;;;;;;10.00;4.35;;;;;;;25.50;78.31;99967.91;5010900;28;20038;-80
2023/07/02 06:24:32;;;;;;;14.95;5.10;;;;;;;25.13;80.07;99958.97;5011495;28;20046;-80
2023/07/02 06:26:57;;;;;;;33.60;7.30;;;;;;;25.18;80.97;99961.84;5011815;28;20033;-79
2023/07/02 06:29:24;;;;;;;12.18;4.75;;;;;;;25.12;82.19;99965.53;5012147;28;20421;-88
2023/07/02 06:31:50;;;;;;;60.15;7.82;;;;;;;25.04;82.01;99954.88;4994090;28;20026;-82
2023/07/02 06:34:15;;;;;;;10.73;4.45;;;;;;;24.89;81.66;99956.13;5011428;28;20417;-81
2023/07/02 06:36:41;;;;;;;13.30;4.70;;;;;;;24.95;81.85;99964.53;5011551;28;20061;-81
2023/07/02 06:39:09;;;;;;;21.33;5.28;;;;;;;24.90;82.65;99957.81;5011214;28;20514;-80
2023/07/02 06:41:35;;;;;;;10.70;5.03;;;;;;;24.89;82.26;99956.13;5010453;28;20089;-82
2023/07/02 06:44:00;;;;;;;11.20;4.30;;;;;;;25.01;82.27;99966.34;5011267;28;20518;-80
2023/07/02 06:46:26;;;;;;;13.00;6.28;;;;;;;25.21;81.71;99972.38;5010849;28;20033;-79
2023/07/02 06:48:51;;;;;;;15.10;5.25;;;;;;;25.34;81.12;99963.91;5010895;28;20045;-80
2023/07/02 06:51:18;;;;;;;18.17;5.50;;;;;;;25.43;79.36;99973.50;5010944;28;20038;-81
2023/07/02 06:53:44;;;;;;;8.13;4.40;;;;;;;25.51;78.44;99966.81;5011387;28;20045;-80
2023/07/02 06:56:10;;;;;;;26.48;6.10;;;;;;;25.58;78.41;99973.06;5011190;28;20116;-81
2023/07/02 06:58:36;;;;;;;11.23;4.72;;;;;;;25.57;78.86;99972.22;5011611;28;20522;-80
2023/07/02 07:01:01;;;;;;;35.97;5.13;;;;;;;25.52;78.79;99963.84;5010718;28;20034;-81
2023/07/02 07:03:27;;;;;;;22.73;6.32;;;;;;;25.54;79.04;99961.69;5010730;28;20046;-80
2023/07/02 07:05:53;;;;;;;15.57;4.72;;;;;;;25.60;78.69;99957.97;5010988;28;20495;-82
2023/07/02 07:08:18;;;;;;;9.48;4.50;;;;;;;25.57;78.17;99968.63;4959421;28;20041;-79
2023/07/02 07:10:45;;;;;;;17.63;5.28;;;;;;;25.59;77.65;99967.34;5010049;28;20038;-80
2023/07/02 07:13:11;;;;;;;10.50;4.82;;;;;;;25.68;78.27;99979.69;4993069;28;20100;-81
2023/07/02 07:15:36;;;;;;;13.77;4.88;;;;;;;25.79;77.59;99970.56;5010311;28;20058;-80
2023/07/02 07:18:02;;;;;;;25.70;5.45;;;;;;;25.65;77.17;99966.38;5010635;28;20446;-81
2023/07/02 07:20:28;;;;;;;18.85;5.45;;;;;;;25.75;75.60;99965.75;5010959;28;20034;-80
2023/07/02 07:22:54;;;;;;;8.90;5.50;;;;;;;25.81;75.57;99973.06;5011060;28;20567;-80
2023/07/02 07:25:19;;;;;;;13.05;4.80;;;;;;;25.80;72.78;99968.66;5010631;28;20498;-79
2023/07/02 07:27:45;;;;;;;16.80;5.45;;;;;;;25.91;75.32;99951.28;4974989;28;20046;-79
2023/07/02 07:30:11;;;;;;;11.35;4.68;;;;;;;25.79;74.62;99955.94;5010393;28;20041;-79
2023/07/02 07:32:36;;;;;;;14.57;5.22;;;;;;;25.86;74.02;99973.19;5010084;28;20517;-81
2023/07/02 07:35:02;;;;;;;13.48;4.53;;;;;;;25.98;75.81;99972.13;4993036;28;20042;-83
2023/07/02 07:37:27;;;;;;;14.30;5.13;;;;;;;25.94;76.21;99959.91;5010092;28;20076;-80
2023/07/02 07:39:53;;;;;;;19.77;4.88;;;;;;;25.91;77.17;99949.34;5010836;28;20034;-80
2023/07/02 07:42:18;;;;;;;18.50;6.30;;;;;;;26.18;76.98;99971.75;5010584;28;20034;-81
2023/07/02 07:44:47;;;;;;;20.00;5.22;;;;;;;26.08;76.25;99943.97;5010211;28;20038;-80
2023/07/02 07:47:12;;;;;;;10.02;4.78;;;;;;;26.13;76.04;99945.97;5010293;28;20042;-80
2023/07/02 07:49:38;;;;;;;12.52;4.70;;;;;;;26.21;75.28;99954.72;5010632;28;20544;-80
2023/07/02 07:52:06;;;;;;;8.90;4.28;;;;;;;26.19;74.89;99950.53;5010189;28;20748;-81
2023/07/02 07:54:32;;;;;;;12.63;4.55;;;;;;;26.33;75.14;99968.47;5010169;28;20046;-80
2023/07/02 07:56:58;;;;;;;7.90;4.43;;;;;;;26.19;74.24;99951.38;4993401;28;20421;-79
2023/07/02 07:59:23;;;;;;;33.20;6.38;;;;;;;26.36;74.45;99934.94;5010931;28;20096;-82
2023/07/02 08:01:48;;;;;;;12.68;4.88;;;;;;;26.53;73.94;99966.16;5011343;28;20052;-78
2023/07/02 08:04:14;;;;;;;58.60;10.38;;;;;;;26.43;73.57;99963.19;5010619;28;20057;-80
2023/07/02 08:06:39;;;;;;;16.42;5.97;;;;;;;26.65;74.19;99971.63;5014918;28;20556;-79
2023/07/02 08:09:05;;;;;;;29.85;5.28;;;;;;;26.61;72.67;99979.56;5029852;28;20034;-80
2023/07/02 08:11:30;;;;;;;10.35;3.72;;;;;;;26.53;72.28;99963.41;5034819;28;20045;-83
2023/07/02 08:13:56;;;;;;;11.32;4.80;;;;;;;26.55;72.97;99960.41;5030636;28;20116;-82
2023/07/02 08:16:21;;;;;;;12.93;3.88;;;;;;;26.86;71.23;99980.09;5002346;28;20478;-81
2023/07/02 08:18:46;;;;;;;8.30;4.47;;;;;;;26.74;70.17;99976.53;5012477;28;20029;-79
2023/07/02 08:21:12;;;;;;;7.22;4.70;;;;;;;26.69;70.92;99970.06;5013032;28;20383;-79
2023/07/02 08:23:37;;;;;;;15.63;4.95;;;;;;;26.47;71.12;99967.16;5014062;28;20516;-80
2023/07/02 08:26:03;;;;;;;17.48;5.25;;;;;;;26.55;71.62;99960.41;5011035;28;20034;-80
2023/07/02 08:28:29;;;;;;;6.60;4.03;;;;;;;26.69;70.76;99956.28;5010846;28;20038;-79
2023/07/02 08:30:54;;;;;;;5.90;3.85;;;;;;;26.71;70.71;99977.03;5010319;28;20112;-81
2023/07/02 08:33:20;;;;;;;5.25;3.92;;;;;;;26.63;72.55;99974.66;5009588;28;20068;-80
2023/07/02 08:35:47;;;;;;;9.23;5.15;;;;;;;26.68;72.10;99966.47;5009220;28;20045;-80
2023/07/02 08:38:12;;;;;;;10.23;4.70;;;;;;;26.85;72.30;99952.75;5008889;28;20045;-81
2023/07/02 08:40:37;;;;;;;11.07;4.72;;;;;;;26.96;72.54;99952.72;5009596;28;20042;-80
2023/07/02 08:43:03;;;;;;;15.07;5.15;;;;;;;26.96;73.77;99952.72;5009826;28;20059;-79
2023/07/02 08:45:29;;;;;;;5.95;4.43;;;;;;;26.66;73.83;99938.31;5009324;28;20037;-79
2023/07/02 08:47:56;;;;;;;9.50;5.07;;;;;;;26.76;75.07;99952.28;5010542;28;20034;-79
2023/07/02 08:50:23;;;;;;;19.45;5.82;;;;;;;27.05;75.31;99972.47;5005745;28;20069;-80
2023/07/02 08:52:48;;;;;;;9.75;5.05;;;;;;;27.16;74.93;99970.72;5009296;28;20026;-80
2023/07/02 08:55:14;;;;;;;8.45;5.25;;;;;;;27.18;74.63;99971.31;5011206;28;20042;-79
2023/07/02 08:57:49;;;;;;;17.40;5.80;;;;;;;27.21;75.01;99977.19;5009326;28;20489;-80
2023/07/02 09:00:15;;;;;;;9.02;4.82;;;;;;;27.22;76.28;99972.47;4989909;28;20529;-81
2023/07/02 09:02:40;;;;;;;22.15;4.97;;;;;;;27.29;76.47;99973.16;5001483;28;20077;-81
2023/07/02 09:05:06;;;;;;;10.38;5.78;;;;;;;27.19;75.27;99964.69;4991319;28;20117;-81
2023/07/02 09:07:32;;;;;;;12.65;5.22;;;;;;;27.17;76.58;99958.59;5009805;28;20038;-79
2023/07/02 09:09:57;;;;;;;12.38;5.35;;;;;;;27.26;76.74;99974.50;5010566;28;20509;-80
2023/07/02 09:12:26;;;;;;;10.38;5.85;;;;;;;27.21;77.58;99982.72;5009925;28;20104;-79
2023/07/02 09:14:57;;;;;;;12.43;4.25;;;;;;;27.20;76.58;99980.19;5009064;28;20026;-79
2023/07/02 09:17:31;;;;;;;14.45;5.00;;;;;;;27.17;74.67;99986.19;5007495;28;20030;-80
2023/07/02 09:20:00;;;;;;;18.65;5.00;;;;;;;27.00;76.92;99981.47;5007549;28;20565;-83
2023/07/02 09:22:25;;;;;;;12.75;5.13;;;;;;;27.09;77.03;99972.81;5008666;28;20045;-79
2023/07/02 09:24:55;;;;;;;25.63;5.05;;;;;;;27.15;75.78;99978.19;5005390;28;20034;-80
2023/07/02 09:27:21;;;;;;;6.32;4.25;;;;;;;27.09;77.10;99972.81;5007097;28;20199;-80
2023/07/02 09:29:53;;;;;;;13.73;4.90;;;;;;;27.09;76.59;99957.09;5006343;28;20049;-81
2023/07/02 09:32:26;;;;;;;10.80;5.00;;;;;;;27.19;76.87;99972.97;5006807;28;20561;-79
2023/07/02 09:34:54;;;;;;;16.05;5.35;;;;;;;26.93;76.41;99961.50;4989972;28;20110;-80
2023/07/02 09:37:20;;;;;;;14.00;5.38;;;;;;;26.92;77.78;99961.72;5007303;28;20081;-80
2023/07/02 09:39:50;;;;;;;5.95;4.35;;;;;;;26.67;78.61;99974.97;5007428;28;20072;-78
2023/07/02 09:42:19;;;;;;;11.43;4.13;;;;;;;26.70;78.69;99964.31;5006886;28;20041;-80
2023/07/02 09:44:46;;;;;;;8.45;4.57;;;;;;;26.86;79.18;99974.59;5006360;28;20046;-81
2023/07/02 09:47:12;;;;;;;14.50;4.78;;;;;;;26.89;77.95;99963.06;5006574;28;20045;-80
2023/07/02 09:49:45;;;;;;;12.90;4.75;;;;;;;26.78;78.17;99958.41;4988785;28;20421;-80
2023/07/02 09:52:11;;;;;;;24.45;5.68;;;;;;;26.85;77.89;99978.44;5009041;28;20533;-81
2023/07/02 09:54:38;;;;;;;7.55;4.70;;;;;;;26.93;77.01;99969.78;5011665;28;21039;-80
2023/07/02 09:57:05;;;;;;;17.77;4.75;;;;;;;26.97;76.18;99981.97;5009565;28;20149;-80
2023/07/02 09:59:31;;;;;;;6.68;4.22;;;;;;;27.13;76.55;99974.81;5010392;28;20103;-82
2023/07/02 10:01:57;;;;;;;9.23;4.32;;;;;;;27.27;75.35;99972.59;5011358;28;20461;-81
2023/07/02 10:04:26;;;;;;;8.88;3.92;;;;;;;27.00;74.99;99953.88;5010306;28;20042;-79
2023/07/02 10:06:56;;;;;;;8.18;4.03;;;;;;;27.05;75.48;99964.19;5011695;28;20041;-83
2023/07/02 10:09:43;;;;;;;32.70;6.32;;;;;;;26.91;75.39;99955.34;5010324;28;20572;-80
2023/07/02 10:12:22;;;;;;;8.55;4.78;;;;;;;26.73;76.38;99951.94;5011429;28;20056;-82
2023/07/02 10:14:51;;;;;;;11.00;4.53;;;;;;;26.75;77.07;99961.66;5013533;28;20076;-79
2023/07/02 10:17:28;;;;;;;17.90;4.65;;;;;;;26.95;77.27;99975.88;5011547;28;20037;-81
2023/07/02 10:19:55;;;;;;;14.63;5.50;;;;;;;26.84;76.51;99965.72;5013507;28;20104;-82
2023/07/02 10:22:21;;;;;;;11.02;4.25;;;;;;;27.02;76.24;99961.91;5010737;28;20041;-81
2023/07/02 10:24:53;;;;;;;15.55;4.68;;;;;;;27.18;73.94;99963.03;5012432;28;20060;-80
2023/07/02 10:27:18;;;;;;;28.67;5.15;;;;;;;27.17;74.20;99958.59;5010932;28;20034;-81
2023/07/02 10:29:50;;;;;;;10.30;4.32;;;;;;;27.05;74.00;99958.66;5010967;28;20433;-82
2023/07/02 10:32:28;;;;;;;7.55;3.67;;;;;;;27.19;73.66;99945.34;5011661;28;20038;-82
2023/07/02 10:34:53;;;;;;;13.57;5.18;;;;;;;27.29;74.11;99945.53;4984337;28;20064;-81
2023/07/02 10:37:19;;;;;;;7.55;4.43;;;;;;;27.49;72.71;99943.97;5011814;28;20514;-84
2023/07/02 10:39:44;;;;;;;21.90;5.53;;;;;;;27.46;72.39;99914.09;5009415;28;20434;-82
2023/07/02 10:42:10;;;;;;;10.32;4.63;;;;;;;27.45;71.73;99933.69;5011283;28;20647;-78
2023/07/02 10:44:51;;;;;;;24.73;5.57;;;;;;;27.39;71.61;99935.53;5012826;28;20536;-86
2023/07/02 10:47:16;;;;;;;13.90;5.57;;;;;;;27.39;72.19;99929.16;5016623;28;20037;-82
2023/07/02 10:49:42;;;;;;;10.18;5.03;;;;;;;27.38;72.17;99941.28;5019062;28;20095;-81
2023/07/02 10:52:07;;;;;;;9.10;4.53;;;;;;;27.44;72.94;99932.03;5013259;28;20053;-85
2023/07/02 10:54:46;;;;;;;38.67;7.78;;;;;;;27.45;71.25;99917.97;5012032;28;20045;-82
2023/07/02 10:57:20;;;;;;;14.35;4.57;;;;;;;27.51;71.88;99908.69;5019276;28;20052;-82
2023/07/02 10:59:46;;;;;;;12.77;4.63;;;;;;;27.44;71.30;99916.28;5014791;28;20034;-83
2023/07/02 11:02:11;;;;;;;7.30;4.57;;;;;;;27.45;72.23;99911.59;5014463;28;20129;-85
2023/07/02 11:04:37;;;;;;;10.00;4.63;;;;;;;27.49;71.77;99899.78;5021156;28;20041;-82
2023/07/02 11:07:03;;;;;;;25.30;5.43;;;;;;;27.61;71.11;99916.28;5006682;28;20038;-81
2023/07/02 11:09:29;;;;;;;10.00;4.05;;;;;;;27.73;71.32;99918.94;5012557;28;20040;-86
2023/07/02 11:11:57;;;;;;;11.77;4.80;;;;;;;27.91;70.63;99915.88;5015594;28;20030;-86
2023/07/02 11:14:36;;;;;;;8.98;4.28;;;;;;;27.89;70.45;99924.44;5014068;28;20034;-79
2023/07/02 11:17:05;;;;;;;14.55;5.50;;;;;;;27.86;70.12;99905.59;5012187;28;20034;-83
2023/07/02 11:19:34;;;;;;;17.42;5.05;;;;;;;27.78;70.09;99916.25;5013367;28;20034;-80
2023/07/02 11:22:00;;;;;;;9.27;4.20;;;;;;;27.61;71.31;99918.22;5012000;28;20522;-81
2023/07/02 11:24:34;;;;;;;12.73;5.18;;;;;;;27.86;70.62;99902.81;5011843;28;20052;-84